createdAt,value
2022-12-18T00:04:06.513Z,0.2
2022-12-18T00:09:06.235Z,0.4
2022-12-18T00:14:29.498Z,0.2
2022-12-18T00:19:06.804Z,0.2
2022-12-18T00:24:06.204Z,0.2
2022-12-18T00:29:29.667Z,0.2
2022-12-18T00:39:07.850Z,0.2
2022-12-18T00:44:22.035Z,0.2
2022-12-18T00:49:06.101Z,0.2
2022-12-18T00:54:06.129Z,0.3
2022-12-18T00:59:17.278Z,0.3
2022-12-18T01:04:06.060Z,0.2
2022-12-18T01:09:06.069Z,0.2
2022-12-18T01:19:08.307Z,0.2
2022-12-18T01:24:07.451Z,0.2
2022-12-18T01:29:22.929Z,0.2
2022-12-18T01:34:06.148Z,0.3
2022-12-18T01:39:06.117Z,0.2
2022-12-18T01:44:20.001Z,0.2
2022-12-18T01:49:06.066Z,0.2
2022-12-18T01:54:06.093Z,0.3
2022-12-18T01:59:18.061Z,0.2
2022-12-18T02:04:06.260Z,0.2
2022-12-18T02:09:06.068Z,0.2
2022-12-18T02:14:15.676Z,0.3
2022-12-18T02:19:06.218Z,0.3
2022-12-18T02:24:06.042Z,0.3
2022-12-18T02:29:16.776Z,0.4
2022-12-18T02:34:06.057Z,0.3
2022-12-18T02:39:06.081Z,0.2
2022-12-18T02:44:19.995Z,0.2
2022-12-18T02:49:06.119Z,0.2
2022-12-18T02:54:06.069Z,0.2
2022-12-18T02:59:16.729Z,0.2
2022-12-18T03:09:06.074Z,0.2
2022-12-18T03:14:17.389Z,0.3
2022-12-18T03:19:06.335Z,0.3
2022-12-18T03:24:06.019Z,0.2
2022-12-18T03:29:15.252Z,0.2
2022-12-18T03:34:06.076Z,0.3
2022-12-18T03:39:06.028Z,0.2
2022-12-18T03:44:11.843Z,0.2
2022-12-18T03:49:06.091Z,0.2
2022-12-18T03:54:07.449Z,0.2
2022-12-18T03:59:16.501Z,0.3
2022-12-18T04:04:06.195Z,0.2
2022-12-18T04:09:06.547Z,0.3
2022-12-18T04:14:21.052Z,0.3
2022-12-18T04:19:06.099Z,0.2
2022-12-18T04:24:06.359Z,0.2
2022-12-18T04:29:09.660Z,0.2
2022-12-18T04:34:06.604Z,0.3
2022-12-18T04:39:06.136Z,0.3
2022-12-18T04:44:11.522Z,0.3
2022-12-18T04:49:06.206Z,0.3
2022-12-18T04:54:06.041Z,0.3
2022-12-18T04:59:18.011Z,0.1
2022-12-18T05:04:06.087Z,0.2
2022-12-18T05:09:07.067Z,0.2
2022-12-18T05:14:16.165Z,0.3
2022-12-18T05:19:06.271Z,0.2
2022-12-18T05:24:06.105Z,0.2
2022-12-18T05:29:20.129Z,0.2
2022-12-18T05:34:06.044Z,0.3
2022-12-18T05:39:07.535Z,0.2
2022-12-18T05:44:34.268Z,0.2
2022-12-18T05:49:06.658Z,0.2
2022-12-18T05:54:06.055Z,0.2
2022-12-18T05:59:22.014Z,0.2
2022-12-18T06:04:06.150Z,0.2
2022-12-18T06:09:06.151Z,0.1
2022-12-18T06:14:18.597Z,0.3
2022-12-18T06:19:06.102Z,0.1
2022-12-18T06:24:06.049Z,0.3
2022-12-18T06:29:18.476Z,0.2
2022-12-18T06:34:06.063Z,0.2
2022-12-18T06:39:06.065Z,0.2
2022-12-18T06:44:22.039Z,0.2
2022-12-18T06:49:06.072Z,0.2
2022-12-18T06:54:06.058Z,0.3
2022-12-18T06:59:19.628Z,0.2
2022-12-18T07:04:06.054Z,0.3
2022-12-18T07:09:06.340Z,0.3
2022-12-18T07:14:18.826Z,0.4
2022-12-18T07:19:06.066Z,0.4
2022-12-18T07:24:06.229Z,0.3
2022-12-18T07:29:09.899Z,0.4
2022-12-18T07:34:06.362Z,0.4
2022-12-18T07:39:06.089Z,0.5
2022-12-18T07:44:16.541Z,0.5
2022-12-18T07:49:06.067Z,0.6
2022-12-18T07:54:06.156Z,0.6
2022-12-18T07:59:20.042Z,0.8
2022-12-18T08:04:06.069Z,0.8
2022-12-18T08:09:06.065Z,0.8
2022-12-18T08:14:17.427Z,0.8
2022-12-18T08:19:06.135Z,0.9
2022-12-18T08:24:06.070Z,0.1
2022-12-18T08:29:23.269Z,0.8
2022-12-18T08:34:06.101Z,0.11
2022-12-18T08:39:06.052Z,0.11
2022-12-18T08:44:20.442Z,0.12
2022-12-18T08:49:06.072Z,0.14
2022-12-18T08:54:07.082Z,0.15
2022-12-18T08:59:19.274Z,0.17
2022-12-18T09:04:09.107Z,0.13
2022-12-18T09:09:06.080Z,0.15
2022-12-18T09:14:11.630Z,0.16
2022-12-18T09:19:06.142Z,0.16
2022-12-18T09:24:09.262Z,0.23
2022-12-18T09:29:20.113Z,0.26
2022-12-18T09:34:06.161Z,0.19
2022-12-18T09:39:09.223Z,0.21
2022-12-18T09:44:22.663Z,0.21
2022-12-18T09:49:06.098Z,0.24
2022-12-18T09:54:06.103Z,0.19
2022-12-18T09:59:19.090Z,0.26
2022-12-18T10:04:06.166Z,0.2
2022-12-18T10:09:06.215Z,0.27
2022-12-18T10:14:16.682Z,0.43
2022-12-18T10:19:06.109Z,0.51
2022-12-18T10:24:06.149Z,0.57
2022-12-18T10:29:22.973Z,0.48
2022-12-18T10:34:06.174Z,0.42
2022-12-18T10:39:06.139Z,0.53
2022-12-18T10:44:21.541Z,0.41
2022-12-18T10:49:06.109Z,0.28
2022-12-18T10:54:07.227Z,0.31
2022-12-18T10:59:17.731Z,0.55
2022-12-18T11:04:06.221Z,0.58
2022-12-18T11:09:13.377Z,0.47
2022-12-18T11:14:21.019Z,0.35
2022-12-18T11:19:06.107Z,0.31
2022-12-18T11:24:06.172Z,0.34
2022-12-18T11:29:10.219Z,0.36
2022-12-18T11:34:29.385Z,0.42
2022-12-18T11:39:06.149Z,0.36
2022-12-18T11:44:23.582Z,0.26
2022-12-18T11:49:06.110Z,0.27
2022-12-18T11:54:06.094Z,0.23
2022-12-18T11:59:19.631Z,0.21
2022-12-18T12:04:07.176Z,0.23
2022-12-18T12:09:06.082Z,0.26
2022-12-18T12:14:17.769Z,0.28
2022-12-18T12:19:06.134Z,0.28
2022-12-18T12:24:06.105Z,0.29
2022-12-18T12:29:23.497Z,0.28
2022-12-18T12:34:07.100Z,0.27
2022-12-18T12:39:06.245Z,0.28
2022-12-18T12:44:22.947Z,0.29
2022-12-18T12:49:06.109Z,0.28
2022-12-18T12:54:06.170Z,0.26
2022-12-18T12:59:11.873Z,0.26
2022-12-18T13:04:06.117Z,0.25
2022-12-18T13:09:06.119Z,0.26
2022-12-18T13:14:45.365Z,0.26
2022-12-18T13:19:07.177Z,0.25
2022-12-18T13:24:06.124Z,0.24
2022-12-18T13:29:21.193Z,0.23
2022-12-18T13:39:06.117Z,0.18
2022-12-18T13:44:24.818Z,0.17
2022-12-18T13:49:07.145Z,0.16
2022-12-18T13:54:06.183Z,0.16
2022-12-18T13:59:24.685Z,0.14
2022-12-18T14:04:06.190Z,0.13
2022-12-18T14:09:09.536Z,0.13
2022-12-18T14:14:19.595Z,0.12
2022-12-18T14:19:10.129Z,0.1
2022-12-18T14:24:06.159Z,0.1
2022-12-18T14:29:18.605Z,0.9
2022-12-18T14:34:06.183Z,0.8
2022-12-18T14:39:06.160Z,0.8
2022-12-18T14:44:20.823Z,0.7
2022-12-18T14:49:06.134Z,0.5
2022-12-18T14:54:06.173Z,0.5
2022-12-18T14:59:24.437Z,0.4
2022-12-18T15:04:07.171Z,0.3
2022-12-18T15:09:06.382Z,0.3
2022-12-18T15:14:16.101Z,0.4
2022-12-18T15:19:06.446Z,0.3
2022-12-18T15:24:06.144Z,0.2
2022-12-18T15:29:15.799Z,0.2
2022-12-18T15:34:06.175Z,0.2
2022-12-18T15:39:07.189Z,0.2
2022-12-18T15:44:11.707Z,0.3
2022-12-18T15:49:06.177Z,0.3
2022-12-18T15:54:06.297Z,0.2
2022-12-18T15:59:20.907Z,0.2
2022-12-18T16:04:06.304Z,0.3
2022-12-18T16:09:06.150Z,0.2
2022-12-18T16:14:18.472Z,0.2
2022-12-18T16:32:59.234Z,0.2
2022-12-18T16:34:06.683Z,0.2
2022-12-18T16:42:36.043Z,0.3
2022-12-18T16:47:49.059Z,0.2
2022-12-18T16:54:10.963Z,0.3
2022-12-18T16:59:06.240Z,0.2
2022-12-18T17:04:06.203Z,0.2
2022-12-18T17:14:12.241Z,0.2
2022-12-18T17:19:17.205Z,0.2
2022-12-18T17:24:12.237Z,0.2
2022-12-18T17:29:12.142Z,0.3
2022-12-18T17:34:12.317Z,0.2
2022-12-18T17:39:12.315Z,0.3
2022-12-18T17:44:12.305Z,0.2
2022-12-18T17:49:12.178Z,0.2
2022-12-18T17:54:12.321Z,0.2
2022-12-18T17:59:12.300Z,0.2
2022-12-18T18:04:12.389Z,0.3
2022-12-18T18:09:16.244Z,0.2
2022-12-18T18:14:12.216Z,0.2
2022-12-18T18:19:12.203Z,0.2
2022-12-18T18:24:12.276Z,0.2
2022-12-18T18:29:12.205Z,0.3
2022-12-18T18:34:12.513Z,0.3
2022-12-18T18:39:12.310Z,0.3
2022-12-18T18:44:12.312Z,0.3
2022-12-18T18:49:12.337Z,0.3
2022-12-18T18:54:12.355Z,0.2
2022-12-18T18:59:12.372Z,0.2
2022-12-18T19:04:12.302Z,0.2
2022-12-18T19:09:12.276Z,0.3
2022-12-18T19:14:12.391Z,0.2
2022-12-18T19:19:12.359Z,0.3
2022-12-18T19:24:12.163Z,0.2
2022-12-18T19:29:12.219Z,0.3
2022-12-18T19:34:12.228Z,0.2
2022-12-18T19:39:12.508Z,0.2
2022-12-18T19:44:12.283Z,0.2
2022-12-18T19:49:17.416Z,0.2
2022-12-18T19:54:16.855Z,0.3
2022-12-18T19:59:12.612Z,0.2
2022-12-18T20:04:12.265Z,0.2
2022-12-18T20:09:12.308Z,0.2
2022-12-18T20:14:12.281Z,0.3
2022-12-18T20:19:12.633Z,0.2
2022-12-18T20:24:12.214Z,0.3
2022-12-18T20:29:12.230Z,0.2
2022-12-18T20:34:12.252Z,0.3
2022-12-18T20:39:12.416Z,0.2
2022-12-18T20:44:22.183Z,0.2
2022-12-18T20:49:12.239Z,0.3
2022-12-18T20:54:13.314Z,0.2
2022-12-18T20:59:12.174Z,0.1
2022-12-18T21:04:12.354Z,0.2
2022-12-18T21:09:12.249Z,0.2
2022-12-18T21:14:12.218Z,0.2
2022-12-18T21:19:12.288Z,0.2
2022-12-18T21:24:12.248Z,0.2
2022-12-18T21:29:12.184Z,0.2
2022-12-18T21:34:12.305Z,0.2
2022-12-18T21:39:12.315Z,0.2
2022-12-18T21:44:12.206Z,0.2
2022-12-18T21:49:12.254Z,0.2
2022-12-18T21:54:12.401Z,0.2
2022-12-18T21:59:12.289Z,0.2
2022-12-18T22:04:12.274Z,0.2
2022-12-18T22:09:12.206Z,0.2
2022-12-18T22:14:12.191Z,0.2
2022-12-18T22:19:12.226Z,0.2
2022-12-18T22:24:12.246Z,0.3
2022-12-18T22:29:13.295Z,0.3
2022-12-18T22:34:12.235Z,0.2
2022-12-18T22:39:12.251Z,0.2
2022-12-18T22:44:16.428Z,0.2
2022-12-18T22:49:12.519Z,0.3
2022-12-18T22:54:12.351Z,0.2
2022-12-18T22:59:12.480Z,0.2
2022-12-18T23:04:12.235Z,0.2
2022-12-18T23:09:12.298Z,0.2
2022-12-18T23:14:12.518Z,0.2
2022-12-18T23:19:12.259Z,0.2
2022-12-18T23:24:12.417Z,0.2
2022-12-18T23:29:12.208Z,0.3
2022-12-18T23:34:12.229Z,0.2
2022-12-18T23:39:15.306Z,0.2
2022-12-18T23:44:12.219Z,0.2
2022-12-18T23:49:12.764Z,0.2
2022-12-18T23:54:12.453Z,0.3
2022-12-18T23:59:12.273Z,0.2
